Terminal Aerodrome Forecast
Issued by NWS

Home | Current Version | Previous Version | Graphics & Text | Print | Product List | Glossary On
Versions: 1 2 3 4 5 6 7 8 9 10 11 12 13 14 15 16 17 18 19 20 21 22 23 24 25 26 27 28 29
000
FTUS43 KABR 212326
TAFATY
TAF
KATY 212326Z 2200/2224 28007KT 3SM BR OVC003
     FM220300 VRB05KT 1/2SM FG OVC001
     FM221300 31008KT 1SM BR OVC003
     FM221600 30010KT 4SM BR OVC008=

USA.gov is the U.S. government's official web portal to all federal, state and local government web resources and services.